createdAt,value
2016-05-02T00:00:15.803Z,0
2016-05-02T00:01:15.962Z,0
2016-05-02T00:02:15.949Z,0
2016-05-02T00:03:15.780Z,0
2016-05-02T00:04:15.939Z,0
2016-05-02T00:05:15.941Z,0
2016-05-02T00:06:16.460Z,0
2016-05-02T00:07:15.760Z,0
2016-05-02T00:08:15.918Z,0
2016-05-02T00:09:15.905Z,0
2016-05-02T00:10:15.893Z,0
2016-05-02T00:11:15.739Z,0
2016-05-02T00:12:15.898Z,0
2016-05-02T00:13:15.729Z,0
2016-05-02T00:14:15.731Z,0
2016-05-02T00:15:15.874Z,0
2016-05-02T00:16:15.721Z,0
2016-05-02T00:17:15.865Z,0
2016-05-02T00:18:15.711Z,0
2016-05-02T00:19:17.886Z,0
2016-05-02T00:20:16.122Z,0
2016-05-02T00:21:18.797Z,0
2016-05-02T00:22:16.236Z,0
2016-05-02T00:23:15.850Z,0
2016-05-02T00:24:15.992Z,0
2016-05-02T00:25:15.667Z,0
2016-05-02T00:26:15.826Z,0
2016-05-02T00:27:15.797Z,0
2016-05-02T00:28:17.237Z,0
2016-05-02T00:29:16.724Z,0
2016-05-02T00:30:15.994Z,0
2016-05-02T00:31:16.839Z,0
2016-05-02T00:32:15.780Z,0
2016-05-02T00:33:15.985Z,0
2016-05-02T00:34:16.066Z,0
2016-05-02T00:35:15.615Z,0
2016-05-02T00:36:16.712Z,0
2016-05-02T00:37:15.762Z,0
2016-05-02T00:38:15.749Z,0
2016-05-02T00:39:15.735Z,0
2016-05-02T00:40:15.723Z,0
2016-05-02T00:41:15.725Z,0
2016-05-02T00:42:15.729Z,0
2016-05-02T00:43:15.559Z,0
2016-05-02T00:44:15.703Z,0
2016-05-02T00:45:15.548Z,0
2016-05-02T00:46:15.536Z,0
2016-05-02T00:47:15.695Z,0
2016-05-02T00:48:15.525Z,0
2016-05-02T00:49:15.684Z,0
2016-05-02T00:50:15.672Z,0
2016-05-02T00:51:15.690Z,0
2016-05-02T00:52:15.505Z,0
2016-05-02T00:53:15.648Z,0
2016-05-02T00:54:15.651Z,0
2016-05-02T00:55:15.638Z,0
2016-05-02T00:56:15.625Z,0
2016-05-02T00:57:15.628Z,0
2016-05-02T00:58:15.630Z,0
2016-05-02T00:59:15.461Z,0
2016-05-02T01:00:15.605Z,0
2016-05-02T01:01:15.607Z,0
2016-05-02T01:02:15.438Z,0
2016-05-02T01:03:15.809Z,0
2016-05-02T01:04:15.700Z,0
2016-05-02T01:05:16.591Z,0
2016-05-02T01:06:15.732Z,0
2016-05-02T01:07:15.918Z,0
2016-05-02T01:08:15.881Z,0
2016-05-02T01:09:16.072Z,0
2016-05-02T01:10:15.857Z,0
2016-05-02T01:11:15.673Z,0
2016-05-02T01:12:15.832Z,0
2016-05-02T01:13:16.084Z,0
2016-05-02T01:14:16.279Z,0
2016-05-02T01:15:15.928Z,0
2016-05-02T01:16:15.530Z,0
2016-05-02T01:17:16.039Z,0
2016-05-02T01:18:15.828Z,0
2016-05-02T01:19:15.676Z,0
2016-05-02T01:20:15.680Z,0
2016-05-02T01:21:15.670Z,0
2016-05-02T01:22:15.674Z,0
2016-05-02T01:23:15.819Z,0
2016-05-02T01:24:15.807Z,0
2016-05-02T01:25:15.795Z,0
2016-05-02T01:26:15.643Z,0
2016-05-02T01:27:15.786Z,0
2016-05-02T01:28:15.633Z,0
2016-05-02T01:29:15.793Z,0
2016-05-02T01:30:15.764Z,0
2016-05-02T01:31:15.767Z,0
2016-05-02T01:32:15.928Z,0
2016-05-02T01:33:15.758Z,0
2016-05-02T01:34:15.745Z,0
2016-05-02T01:35:15.748Z,0
2016-05-02T01:36:15.594Z,0
2016-05-02T01:37:18.862Z,0
2016-05-02T01:38:17.287Z,0
2016-05-02T01:39:15.728Z,0
2016-05-02T01:40:15.558Z,0
2016-05-02T01:41:16.311Z,0
2016-05-02T01:42:15.688Z,0
2016-05-02T01:43:15.722Z,0
2016-05-02T01:44:15.850Z,0
2016-05-02T01:45:15.681Z,0
2016-05-02T01:46:16.402Z,0
2016-05-02T01:47:16.874Z,0
2016-05-02T01:48:15.830Z,0
2016-05-02T01:49:16.816Z,0
2016-05-02T01:50:15.351Z,0
2016-05-02T01:51:15.822Z,0
2016-05-02T01:52:15.482Z,0
2016-05-02T01:53:15.624Z,0
2016-05-02T01:54:15.471Z,0
2016-05-02T01:55:15.457Z,0
2016-05-02T01:56:15.617Z,0
2016-05-02T01:57:15.448Z,0
2016-05-02T01:58:15.435Z,0
2016-05-02T01:59:15.593Z,0
2016-05-02T02:00:15.456Z,0
2016-05-02T02:01:15.599Z,0
2016-05-02T02:02:15.570Z,0
2016-05-02T02:03:15.573Z,0
2016-05-02T02:04:15.404Z,0
2016-05-02T02:05:15.547Z,0
2016-05-02T02:06:15.737Z,0
2016-05-02T02:07:15.537Z,0
2016-05-02T02:08:15.539Z,0
2016-05-02T02:09:15.527Z,0
2016-05-02T02:10:15.530Z,0
2016-05-02T02:11:15.360Z,0
2016-05-02T02:12:15.519Z,0
2016-05-02T02:13:15.506Z,0
2016-05-02T02:14:15.494Z,0
2016-05-02T02:15:15.480Z,0
2016-05-02T02:16:15.483Z,0
2016-05-02T02:17:15.469Z,0
2016-05-02T02:18:15.472Z,0
2016-05-02T02:19:15.304Z,0
2016-05-02T02:20:15.463Z,0
2016-05-02T02:21:15.309Z,0
2016-05-02T02:22:15.687Z,0
2016-05-02T02:23:17.143Z,0
2016-05-02T02:24:15.599Z,0
2016-05-02T02:25:17.715Z,0
2016-05-02T02:26:15.421Z,0
2016-05-02T02:27:15.757Z,0
2016-05-02T02:28:15.416Z,0
2016-05-02T02:29:15.294Z,0
2016-05-02T02:30:15.390Z,0
2016-05-02T02:31:16.534Z,0
2016-05-02T02:32:17.334Z,0
2016-05-02T02:33:16.930Z,0
2016-05-02T02:34:15.636Z,0
2016-05-02T02:35:16.060Z,0
2016-05-02T02:36:16.156Z,0
2016-05-02T02:37:15.972Z,0
2016-05-02T02:38:15.178Z,0
2016-05-02T02:39:15.367Z,0
2016-05-02T02:40:15.323Z,0
2016-05-02T02:41:15.155Z,0
2016-05-02T02:42:15.298Z,0
2016-05-02T02:43:15.144Z,0
2016-05-02T02:44:15.303Z,0
2016-05-02T02:45:15.133Z,0
2016-05-02T02:46:15.277Z,0
2016-05-02T02:47:15.280Z,0
2016-05-02T02:48:15.111Z,0
2016-05-02T02:49:15.097Z,0
2016-05-02T02:50:15.100Z,0
2016-05-02T02:51:15.400Z,4
2016-05-02T02:52:15.247Z,4
2016-05-02T02:53:15.233Z,4
2016-05-02T02:54:15.221Z,0
2016-05-02T02:55:15.224Z,4
2016-05-02T02:56:15.210Z,4
2016-05-02T02:57:15.838Z,4
2016-05-02T02:58:15.668Z,4
2016-05-02T02:59:15.187Z,4
2016-05-02T03:00:15.535Z,4
2016-05-02T03:01:15.021Z,4
2016-05-02T03:02:15.179Z,8
2016-05-02T03:03:15.167Z,8
2016-05-02T03:04:15.029Z,12
2016-05-02T03:05:16.438Z,12
2016-05-02T03:06:16.394Z,12
2016-05-02T03:07:16.740Z,16
2016-05-02T03:08:15.134Z,20
2016-05-02T03:09:14.965Z,24
2016-05-02T03:10:14.967Z,28
2016-05-02T03:11:15.111Z,28
2016-05-02T03:12:15.114Z,32
2016-05-02T03:13:14.945Z,40
2016-05-02T03:14:15.103Z,44
2016-05-02T03:15:15.089Z,48
2016-05-02T03:16:14.920Z,68
2016-05-02T03:17:15.080Z,84
2016-05-02T03:18:14.911Z,76
2016-05-02T03:19:14.757Z,84
2016-05-02T03:20:15.056Z,96
2016-05-02T03:21:15.965Z,108
2016-05-02T03:22:15.031Z,120
2016-05-02T03:23:14.877Z,136
2016-05-02T03:24:15.021Z,152
2016-05-02T03:25:15.023Z,168
2016-05-02T03:26:15.026Z,188
2016-05-02T03:27:15.013Z,208
2016-05-02T03:28:14.687Z,232
2016-05-02T03:29:15.002Z,256
2016-05-02T03:30:14.833Z,280
2016-05-02T03:31:14.836Z,308
2016-05-02T03:32:14.979Z,336
2016-05-02T03:33:14.966Z,368
2016-05-02T03:34:14.953Z,400
2016-05-02T03:35:14.956Z,436
2016-05-02T03:36:14.678Z,468
2016-05-02T03:37:14.946Z,508
2016-05-02T03:38:14.776Z,548
2016-05-02T03:39:14.920Z,592
2016-05-02T03:40:14.939Z,632
2016-05-02T03:41:15.409Z,680
2016-05-02T03:42:29.086Z,740
2016-05-02T03:43:14.758Z,780
2016-05-02T03:44:14.730Z,828
2016-05-02T03:45:15.202Z,880
2016-05-02T03:46:15.423Z,940
2016-05-02T03:47:15.270Z,996
2016-05-02T03:48:14.710Z,1052
2016-05-02T03:49:14.853Z,1112
2016-05-02T03:50:16.308Z,1176
2016-05-02T03:51:17.124Z,1236
2016-05-02T03:52:15.283Z,1300
2016-05-02T03:53:14.817Z,1364
2016-05-02T03:54:14.663Z,1432
2016-05-02T03:55:14.807Z,1504
2016-05-02T03:56:14.653Z,1572
2016-05-02T03:57:14.813Z,1640
2016-05-02T03:58:14.644Z,1712
2016-05-02T03:59:14.630Z,1784
2016-05-02T04:00:14.633Z,1860
2016-05-02T04:01:14.635Z,1956
2016-05-02T04:02:14.763Z,2148
2016-05-02T04:03:14.766Z,2376
2016-05-02T04:04:14.754Z,2504
2016-05-02T04:05:14.740Z,2560
2016-05-02T04:06:14.962Z,2676
2016-05-02T04:07:14.746Z,2820
2016-05-02T04:08:14.592Z,2924
2016-05-02T04:09:14.735Z,3000
2016-05-02T04:10:14.722Z,3028
2016-05-02T04:11:14.709Z,2932
2016-05-02T04:12:14.696Z,2828
2016-05-02T04:13:14.528Z,3012
2016-05-02T04:14:14.701Z,3468
2016-05-02T04:15:16.861Z,3752
2016-05-02T04:16:14.520Z,3872
2016-05-02T04:17:16.147Z,4024
2016-05-02T04:18:14.916Z,4240
2016-05-02T04:19:14.856Z,4476
2016-05-02T04:20:15.030Z,4624
2016-05-02T04:21:15.142Z,4748
2016-05-02T04:22:14.645Z,4936
2016-05-02T04:23:14.632Z,5104
2016-05-02T04:24:15.338Z,5272
2016-05-02T04:25:16.950Z,5596
2016-05-02T04:26:14.890Z,5996
2016-05-02T04:27:15.236Z,6188
2016-05-02T04:28:14.474Z,6136
2016-05-02T04:29:14.460Z,6132
2016-05-02T04:30:14.619Z,6332
2016-05-02T04:31:14.810Z,6572
2016-05-02T04:32:14.609Z,6796
2016-05-02T04:33:14.596Z,7008
2016-05-02T04:34:14.599Z,7268
2016-05-02T04:35:14.446Z,7720
2016-05-02T04:36:16.167Z,8228
2016-05-02T04:37:14.592Z,8492
2016-05-02T04:38:14.579Z,8424
2016-05-02T04:39:14.582Z,8312
2016-05-02T04:40:14.584Z,8096
2016-05-02T04:41:14.586Z,8196
2016-05-02T04:42:14.589Z,8420
2016-05-02T04:43:14.437Z,8552
2016-05-02T04:44:14.595Z,8604
2016-05-02T04:45:14.582Z,8808
2016-05-02T04:46:14.428Z,8932
2016-05-02T04:47:14.587Z,9068
2016-05-02T04:48:14.575Z,9924
2016-05-02T04:49:14.577Z,9948
2016-05-02T04:50:14.580Z,10520
2016-05-02T04:51:14.442Z,10076
2016-05-02T04:52:14.585Z,10352
2016-05-02T04:53:14.588Z,10892
2016-05-02T04:54:14.434Z,11240
2016-05-02T04:55:14.436Z,11628
2016-05-02T04:56:14.596Z,11040
2016-05-02T04:57:14.599Z,10420
2016-05-02T04:58:14.461Z,10956
2016-05-02T04:59:14.604Z,11252
2016-05-02T05:00:15.154Z,12240
2016-05-02T05:01:30.346Z,12792
2016-05-02T05:02:28.802Z,12388
2016-05-02T05:03:14.615Z,12768
2016-05-02T05:04:14.790Z,13352
2016-05-02T05:05:15.276Z,12920
2016-05-02T05:06:14.795Z,13572
2016-05-02T05:07:14.626Z,13908
2016-05-02T05:08:14.644Z,13824
2016-05-02T05:09:14.647Z,14208
2016-05-02T05:10:15.962Z,13888
2016-05-02T05:11:14.668Z,14144
2016-05-02T05:12:28.842Z,14176
2016-05-02T05:13:15.079Z,13472
2016-05-02T05:14:14.676Z,14304
2016-05-02T05:15:14.929Z,13792
2016-05-02T05:16:14.697Z,13472
2016-05-02T05:17:14.543Z,14240
2016-05-02T05:18:14.703Z,13728
2016-05-02T05:19:14.705Z,14784
2016-05-02T05:20:14.708Z,16544
2016-05-02T05:21:14.866Z,16512
2016-05-02T05:22:14.588Z,17280
2016-05-02T05:23:14.731Z,17600
2016-05-02T05:24:14.750Z,18112
2016-05-02T05:25:14.596Z,18432
2016-05-02T05:26:14.770Z,18496
2016-05-02T05:27:14.773Z,20000
2016-05-02T05:28:14.775Z,19424
2016-05-02T05:29:14.794Z,18656
2016-05-02T05:30:14.797Z,20288
2016-05-02T05:31:14.503Z,20352
2016-05-02T05:32:14.818Z,20352
2016-05-02T05:33:14.821Z,20992
2016-05-02T05:34:16.323Z,20416
2016-05-02T05:35:15.763Z,21728
2016-05-02T05:36:14.907Z,23808
2016-05-02T05:37:15.628Z,23968
2016-05-02T05:38:15.162Z,24672
2016-05-02T05:39:14.930Z,25504
2016-05-02T05:40:15.339Z,24576
2016-05-02T05:41:14.890Z,24544
2016-05-02T05:42:14.954Z,25600
2016-05-02T05:43:16.347Z,25824
2016-05-02T05:44:14.928Z,24704
2016-05-02T05:45:14.931Z,25856
2016-05-02T05:46:14.965Z,27520
2016-05-02T05:47:15.420Z,27584
2016-05-02T05:48:14.814Z,27424
2016-05-02T05:49:14.864Z,27840
2016-05-02T05:50:14.992Z,28800
2016-05-02T05:51:16.603Z,28832
2016-05-02T05:52:15.012Z,28640
2016-05-02T05:53:15.014Z,29696
2016-05-02T05:54:14.892Z,29248
2016-05-02T05:55:15.036Z,28672
2016-05-02T05:56:15.055Z,30880
2016-05-02T05:57:15.073Z,32608
2016-05-02T05:58:15.075Z,31424
2016-05-02T05:59:15.093Z,30848
2016-05-02T06:00:15.096Z,30912
2016-05-02T06:01:14.943Z,31360
2016-05-02T06:02:14.805Z,32416
2016-05-02T06:03:15.135Z,32992
2016-05-02T06:04:15.138Z,32384
2016-05-02T06:05:15.000Z,32416
2016-05-02T06:06:15.034Z,32800
2016-05-02T06:07:15.177Z,33600
2016-05-02T06:08:15.180Z,34656
2016-05-02T06:09:15.043Z,35072
2016-05-02T06:10:15.218Z,35296
2016-05-02T06:11:15.220Z,34848
2016-05-02T06:12:14.925Z,34464
2016-05-02T06:13:15.240Z,35776
2016-05-02T06:14:15.259Z,37376
2016-05-02T06:15:15.261Z,39424
2016-05-02T06:16:15.279Z,42432
2016-05-02T06:17:15.142Z,44000
2016-05-02T06:18:15.301Z,42848
2016-05-02T06:19:17.069Z,41248
2016-05-02T06:20:17.072Z,39456
2016-05-02T06:21:16.152Z,38624
2016-05-02T06:22:15.217Z,39776
2016-05-02T06:23:15.413Z,41952
2016-05-02T06:24:15.383Z,43840
2016-05-02T06:25:15.419Z,43200
2016-05-02T06:26:15.389Z,41856
2016-05-02T06:27:15.267Z,43008
2016-05-02T06:28:31.004Z,43680
2016-05-02T06:29:16.038Z,42784
2016-05-02T06:30:43.950Z,41536
2016-05-02T06:31:29.638Z,41120
2016-05-02T06:32:16.030Z,40416
2016-05-02T06:33:15.627Z,42080
2016-05-02T06:34:15.599Z,45728
2016-05-02T06:35:15.601Z,47296
2016-05-02T06:36:15.371Z,47424
2016-05-02T06:37:15.373Z,48288
2016-05-02T06:38:15.391Z,47680
2016-05-02T06:39:15.565Z,46208
2016-05-02T06:40:15.568Z,47360
2016-05-02T06:41:15.602Z,49152
2016-05-02T06:42:15.590Z,48192
2016-05-02T06:43:15.607Z,47936
2016-05-02T06:44:15.626Z,51264
2016-05-02T06:45:15.644Z,54816
2016-05-02T06:46:15.678Z,54400
2016-05-02T06:47:15.524Z,52640
2016-05-02T06:48:15.684Z,53056
2016-05-02T06:49:15.530Z,53024
2016-05-02T06:50:15.720Z,51264
2016-05-02T06:51:15.895Z,49984
2016-05-02T06:52:16.334Z,52768
2016-05-02T06:53:16.180Z,52576
2016-05-02T06:54:15.761Z,48576
2016-05-02T06:55:16.108Z,51424
2016-05-02T06:56:16.658Z,56320
2016-05-02T06:57:16.394Z,56672
2016-05-02T06:58:15.679Z,55040
2016-05-02T06:59:16.369Z,56416
2016-05-02T07:00:15.700Z,60320
2016-05-02T07:01:15.874Z,64160
2016-05-02T07:02:17.049Z,67520
2016-05-02T07:03:17.177Z,69920
2016-05-02T07:04:16.883Z,68320
2016-05-02T07:05:16.057Z,62240
2016-05-02T07:06:16.607Z,59584
2016-05-02T07:07:15.969Z,62464
2016-05-02T07:08:16.112Z,66912
2016-05-02T07:09:15.990Z,68864
2016-05-02T07:10:15.852Z,67328
2016-05-02T07:11:15.885Z,65536
2016-05-02T07:12:16.029Z,64352
2016-05-02T07:13:16.063Z,63072
2016-05-02T07:14:16.065Z,59936
2016-05-02T07:15:16.084Z,60352
2016-05-02T07:16:16.102Z,63648
2016-05-02T07:17:16.121Z,65984
2016-05-02T07:18:15.998Z,65120
2016-05-02T07:19:16.001Z,63968
2016-05-02T07:20:16.175Z,66720
2016-05-02T07:21:16.178Z,69984
2016-05-02T07:22:16.212Z,69632
2016-05-02T07:23:16.214Z,69856
2016-05-02T07:24:16.234Z,72768
2016-05-02T07:25:16.267Z,73888
2016-05-02T07:26:15.973Z,71072
2016-05-02T07:27:16.304Z,67392
2016-05-02T07:28:16.306Z,63776
2016-05-02T07:29:16.325Z,62272
2016-05-02T07:30:16.327Z,61248
2016-05-02T07:31:16.361Z,62432
2016-05-02T07:32:16.363Z,65312
2016-05-02T07:33:16.241Z,67040
2016-05-02T07:34:16.244Z,67392
2016-05-02T07:35:16.419Z,67584
2016-05-02T07:36:16.374Z,67968
2016-05-02T07:37:17.955Z,70240
2016-05-02T07:38:18.082Z,73632
2016-05-02T07:39:17.040Z,75520
2016-05-02T07:40:16.760Z,77408
2016-05-02T07:41:16.513Z,79040
2016-05-02T07:42:16.391Z,78336
2016-05-02T07:43:17.097Z,76288
2016-05-02T07:44:16.568Z,75040
2016-05-02T07:45:16.431Z,75392
2016-05-02T07:46:16.621Z,76384
2016-05-02T07:47:16.623Z,83904
2016-05-02T07:48:17.173Z,88832
2016-05-02T07:49:16.831Z,90848
2016-05-02T07:50:16.662Z,94496
2016-05-02T07:51:17.322Z,96256
2016-05-02T07:52:16.762Z,99296
2016-05-02T07:53:16.577Z,98336
2016-05-02T07:54:16.736Z,91776
2016-05-02T07:55:16.753Z,90656
2016-05-02T07:56:16.788Z,93760
2016-05-02T07:57:16.775Z,93248
2016-05-02T07:58:16.809Z,95200
2016-05-02T07:59:16.827Z,97792
2016-05-02T08:00:16.689Z,100224
2016-05-02T08:01:16.864Z,96352
2016-05-02T08:02:16.866Z,89280
2016-05-02T08:03:16.900Z,86304
2016-05-02T08:04:16.919Z,88448
2016-05-02T08:05:16.765Z,93600
2016-05-02T08:06:17.877Z,86400
2016-05-02T08:07:16.958Z,68768
2016-05-02T08:08:16.993Z,63936
2016-05-02T08:09:16.839Z,64096
2016-05-02T08:10:16.856Z,62848
2016-05-02T08:11:17.079Z,63936
2016-05-02T08:12:19.190Z,63488
2016-05-02T08:13:17.396Z,64800
2016-05-02T08:14:17.899Z,65184
2016-05-02T08:15:17.293Z,63392
2016-05-02T08:16:16.982Z,64704
2016-05-02T08:17:16.984Z,71200
2016-05-02T08:18:17.690Z,73696
2016-05-02T08:19:17.178Z,69472
2016-05-02T08:20:17.228Z,64704
2016-05-02T08:21:18.090Z,64896
2016-05-02T08:22:17.561Z,66400
2016-05-02T08:23:17.235Z,63200
2016-05-02T08:24:17.457Z,61024
2016-05-02T08:25:17.819Z,64736
2016-05-02T08:26:17.837Z,70336
2016-05-02T08:27:17.153Z,73376
2016-05-02T08:28:17.499Z,69792
2016-05-02T08:29:17.314Z,62816
2016-05-02T08:30:17.177Z,61920
2016-05-02T08:31:17.350Z,66656
2016-05-02T08:32:17.213Z,66688
2016-05-02T08:33:17.388Z,64448
2016-05-02T08:34:17.405Z,62816
2016-05-02T08:35:17.424Z,63360
2016-05-02T08:36:17.271Z,61440
2016-05-02T08:37:17.429Z,35904
2016-05-02T08:38:17.292Z,11024
2016-05-02T08:39:17.466Z,8572
2016-05-02T08:40:17.328Z,9312
2016-05-02T08:41:17.487Z,9880
2016-05-02T08:42:17.490Z,8284
2016-05-02T08:43:17.508Z,7596
2016-05-02T08:44:17.370Z,7524
2016-05-02T08:45:17.373Z,8084
2016-05-02T08:46:17.220Z,8852
2016-05-02T08:47:17.394Z,8740
2016-05-02T08:48:17.568Z,8196
2016-05-02T08:49:17.415Z,8384
2016-05-02T08:50:17.433Z,8772
2016-05-02T08:51:18.733Z,9272
2016-05-02T08:52:17.595Z,8820
2016-05-02T08:53:17.301Z,8852
2016-05-02T08:54:17.616Z,9460
2016-05-02T08:55:17.618Z,9304
2016-05-02T08:56:32.559Z,9120
2016-05-02T08:57:31.640Z,7264
2016-05-02T08:58:17.642Z,7020
2016-05-02T08:59:17.880Z,7052
2016-05-02T09:00:17.976Z,6708
2016-05-02T09:01:18.244Z,6776
2016-05-02T09:02:17.794Z,6812
2016-05-02T09:03:17.641Z,6796
2016-05-02T09:04:17.486Z,6856
2016-05-02T09:05:17.661Z,6820
2016-05-02T09:06:18.695Z,6792
2016-05-02T09:07:17.807Z,6824
2016-05-02T09:08:17.497Z,6864
2016-05-02T09:09:18.157Z,6864
2016-05-02T09:10:18.112Z,6944
2016-05-02T09:11:18.115Z,6992
2016-05-02T09:12:17.679Z,6796
2016-05-02T09:13:17.870Z,6732
2016-05-02T09:14:17.670Z,6820
2016-05-02T09:15:17.687Z,7160
2016-05-02T09:16:17.675Z,7776
2016-05-02T09:17:17.678Z,8572
2016-05-02T09:18:17.524Z,9032
2016-05-02T09:19:17.683Z,8876
2016-05-02T09:20:17.529Z,9644
2016-05-02T09:21:17.970Z,10060
2016-05-02T09:22:17.692Z,10028
2016-05-02T09:23:17.522Z,10488
2016-05-02T09:24:17.540Z,11324
2016-05-02T09:25:17.699Z,11260
2016-05-02T09:26:17.546Z,10196
2016-05-02T09:27:17.689Z,8748
2016-05-02T09:28:17.708Z,8816
2016-05-02T09:29:17.695Z,9832
2016-05-02T09:30:19.119Z,11304
2016-05-02T09:31:17.699Z,11680
2016-05-02T09:32:17.921Z,10892
2016-05-02T09:33:17.800Z,9508
2016-05-02T09:34:18.724Z,7212
2016-05-02T09:35:17.944Z,6876
2016-05-02T09:36:18.605Z,7660
2016-05-02T09:37:17.560Z,7464
2016-05-02T09:38:17.702Z,7356
2016-05-02T09:39:19.706Z,7192
2016-05-02T09:40:19.615Z,7448
2016-05-02T09:41:18.429Z,8168
2016-05-02T09:42:17.714Z,8648
2016-05-02T09:43:17.716Z,8344
2016-05-02T09:44:17.578Z,7340
2016-05-02T09:45:18.144Z,6524
2016-05-02T09:46:17.912Z,6760
2016-05-02T09:47:17.571Z,7424
2016-05-02T09:48:17.730Z,7428
2016-05-02T09:49:17.560Z,7124
2016-05-02T09:50:17.579Z,6964
2016-05-02T09:51:17.597Z,6884
2016-05-02T09:52:17.757Z,6956
2016-05-02T09:53:17.728Z,6812
2016-05-02T09:54:17.731Z,7072
2016-05-02T09:55:17.733Z,7796
2016-05-02T09:56:17.736Z,7336
2016-05-02T09:57:17.738Z,6924
2016-05-02T09:58:17.741Z,7668
2016-05-02T09:59:17.744Z,6968
2016-05-02T10:00:17.589Z,7496
2016-05-02T10:01:17.764Z,8168
2016-05-02T10:02:17.736Z,9472
2016-05-02T10:03:17.755Z,10456
2016-05-02T10:04:17.758Z,9312
2016-05-02T10:05:17.603Z,9288
2016-05-02T10:06:17.763Z,10152
2016-05-02T10:07:17.749Z,9608
2016-05-02T10:08:17.455Z,8404
2016-05-02T10:09:17.600Z,9356
2016-05-02T10:10:17.817Z,12164
2016-05-02T10:11:17.707Z,11448
2016-05-02T10:12:17.893Z,11112
2016-05-02T10:13:17.939Z,11216
2016-05-02T10:14:17.662Z,9860
2016-05-02T10:15:18.805Z,8876
2016-05-02T10:17:18.029Z,8796
2016-05-02T10:18:18.047Z,9216
2016-05-02T10:20:18.055Z,10044
2016-05-02T10:21:18.908Z,11772
2016-05-02T10:22:18.416Z,11696
2016-05-02T10:23:18.096Z,10600
2016-05-02T10:25:19.467Z,8816
2016-05-02T10:26:18.597Z,7764
2016-05-02T10:27:17.961Z,6872
2016-05-02T10:28:18.106Z,7116
2016-05-02T10:29:17.798Z,7204
2016-05-02T10:30:18.411Z,7168
2016-05-02T10:31:18.023Z,7672
2016-05-02T10:32:17.965Z,8116
2016-05-02T10:33:18.124Z,7832
2016-05-02T10:34:17.971Z,7084
2016-05-02T10:35:18.130Z,6680
2016-05-02T10:36:19.226Z,6572
2016-05-02T10:37:18.136Z,7028
2016-05-02T10:38:18.122Z,7488
2016-05-02T10:39:18.125Z,6992
2016-05-02T10:40:17.971Z,7308
2016-05-02T10:41:18.130Z,7084
2016-05-02T10:42:18.133Z,6692
2016-05-02T10:43:18.152Z,6840
2016-05-02T10:44:18.138Z,7116
2016-05-02T10:45:18.141Z,7036
2016-05-02T10:46:18.143Z,7060
2016-05-02T10:47:18.146Z,7104
2016-05-02T10:48:17.992Z,6876
2016-05-02T10:49:19.699Z,6540
2016-05-02T10:50:18.373Z,6496
2016-05-02T10:51:18.282Z,6868
2016-05-02T10:52:19.190Z,7488
2016-05-02T10:53:18.318Z,7880
2016-05-02T10:54:18.134Z,7584
2016-05-02T10:55:18.152Z,7836
2016-05-02T10:56:18.139Z,8436
2016-05-02T10:57:18.158Z,8448
2016-05-02T10:58:18.692Z,8220
2016-05-02T10:59:18.164Z,7800
2016-05-02T11:00:18.744Z,7788
2016-05-02T11:01:19.184Z,7924
2016-05-02T11:02:19.171Z,8520
2016-05-02T11:03:18.314Z,8356
2016-05-02T11:04:18.177Z,8192
2016-05-02T11:05:18.555Z,7804
2016-05-02T11:06:18.886Z,7308
2016-05-02T11:07:18.169Z,6848
2016-05-02T11:08:18.016Z,6952
2016-05-02T11:09:18.174Z,7664
2016-05-02T11:10:18.177Z,8836
2016-05-02T11:11:18.023Z,9620
2016-05-02T11:12:18.026Z,8796
2016-05-02T11:13:18.030Z,8532
2016-05-02T11:14:18.235Z,10604
2016-05-02T11:15:18.191Z,11364
2016-05-02T11:16:18.193Z,8828
2016-05-02T11:17:18.212Z,7056
2016-05-02T11:18:18.199Z,6676
2016-05-02T11:19:18.201Z,7148
2016-05-02T11:20:18.048Z,7800
2016-05-02T11:21:18.269Z,8180
2016-05-02T11:22:18.209Z,7976
2016-05-02T11:23:18.048Z,7760
2016-05-02T11:24:18.191Z,7132
2016-05-02T11:25:18.210Z,6632
2016-05-02T11:26:18.212Z,6244
2016-05-02T11:27:18.215Z,6304
2016-05-02T11:28:17.905Z,6392
2016-05-02T11:29:18.064Z,6352
2016-05-02T11:30:18.067Z,6524
2016-05-02T11:31:18.225Z,7148
2016-05-02T11:32:18.057Z,7144
2016-05-02T11:33:18.215Z,7376
2016-05-02T11:34:19.672Z,7340
2016-05-02T11:35:18.220Z,7588
2016-05-02T11:36:18.239Z,8004
2016-05-02T11:37:18.070Z,8668
2016-05-02T11:38:18.542Z,9772
2016-05-02T11:39:18.528Z,11380
2016-05-02T11:40:18.250Z,12280
2016-05-02T11:41:18.222Z,11076
2016-05-02T11:42:18.239Z,10316
2016-05-02T11:43:18.398Z,10608
2016-05-02T11:44:18.089Z,10628
2016-05-02T11:45:19.247Z,10784
2016-05-02T11:46:18.079Z,10388
2016-05-02T11:48:18.912Z,7780
2016-05-02T11:49:18.540Z,9204
2016-05-02T11:50:18.261Z,9836
2016-05-02T11:51:19.670Z,9912
2016-05-02T11:52:18.266Z,8992
2016-05-02T11:53:18.254Z,8932
2016-05-02T11:54:18.256Z,9216
2016-05-02T11:55:18.118Z,9452
2016-05-02T11:56:18.262Z,10344
2016-05-02T11:57:18.123Z,9252
2016-05-02T11:58:18.267Z,7388
2016-05-02T11:59:18.285Z,6632
2016-05-02T12:00:18.132Z,7028
2016-05-02T12:01:18.290Z,7776
2016-05-02T12:02:18.278Z,8376
2016-05-02T12:03:18.296Z,8964
2016-05-02T12:04:18.284Z,9712
2016-05-02T12:05:18.130Z,11316
2016-05-02T12:06:19.070Z,14300
2016-05-02T12:07:18.307Z,15340
2016-05-02T12:08:19.482Z,13476
2016-05-02T12:09:19.016Z,12088
2016-05-02T12:10:18.315Z,10596
2016-05-02T12:11:19.224Z,10520
2016-05-02T12:12:18.711Z,11180
2016-05-02T12:13:18.527Z,10752
2016-05-02T12:14:18.967Z,10972
2016-05-02T12:15:18.172Z,11888
2016-05-02T12:16:18.315Z,13180
2016-05-02T12:17:20.333Z,14492
2016-05-02T12:18:18.196Z,15588
2016-05-02T12:19:18.855Z,16416
2016-05-02T12:20:18.592Z,18112
2016-05-02T12:21:18.469Z,18400
2016-05-02T12:22:18.894Z,17184
2016-05-02T12:23:18.349Z,16096
2016-05-02T12:24:18.352Z,15204
2016-05-02T12:25:18.464Z,14424
2016-05-02T12:26:18.358Z,13920
2016-05-02T12:27:18.360Z,13828
2016-05-02T12:28:18.363Z,14436
2016-05-02T12:29:18.365Z,14020
2016-05-02T12:30:18.056Z,13920
2016-05-02T12:31:18.387Z,16020
2016-05-02T12:32:18.373Z,16832
2016-05-02T12:33:18.377Z,15708
2016-05-02T12:34:18.379Z,14676
2016-05-02T12:35:18.241Z,15116
2016-05-02T12:36:18.089Z,15360
2016-05-02T12:37:18.403Z,15236
2016-05-02T12:38:18.390Z,15424
2016-05-02T12:39:18.409Z,16352
2016-05-02T12:40:18.411Z,16640
2016-05-02T12:41:18.414Z,15752
2016-05-02T12:42:18.260Z,14780
2016-05-02T12:43:18.419Z,14432
2016-05-02T12:44:18.422Z,14480
2016-05-02T12:45:18.441Z,14236
2016-05-02T12:46:18.443Z,13592
2016-05-02T12:47:18.430Z,13776
2016-05-02T12:48:18.432Z,14248
2016-05-02T12:49:18.295Z,14420
2016-05-02T12:50:18.454Z,14956
2016-05-02T12:51:18.379Z,15104
2016-05-02T12:52:18.303Z,14648
2016-05-02T12:53:18.868Z,14368
2016-05-02T12:54:18.918Z,14620
2016-05-02T12:55:18.310Z,14944
2016-05-02T12:56:32.485Z,15000
2016-05-02T12:57:18.332Z,14768
2016-05-02T12:58:18.710Z,14872
2016-05-02T12:59:18.322Z,15260
2016-05-02T13:00:18.512Z,14800
2016-05-02T13:01:18.343Z,13772
2016-05-02T13:02:20.409Z,12444
2016-05-02T13:03:19.098Z,11256
2016-05-02T13:04:19.460Z,9800
2016-05-02T13:05:19.463Z,8532
2016-05-02T13:06:19.373Z,7760
2016-05-02T13:07:18.515Z,7728
2016-05-02T13:08:18.518Z,7744
2016-05-02T13:09:18.567Z,7376
2016-05-02T13:10:18.539Z,7016
2016-05-02T13:11:18.525Z,6836
2016-05-02T13:12:18.528Z,6892
2016-05-02T13:13:18.547Z,7124
2016-05-02T13:14:18.394Z,7716
2016-05-02T13:15:18.553Z,8668
2016-05-02T13:16:18.555Z,9832
2016-05-02T13:17:18.574Z,11492
2016-05-02T13:18:18.561Z,12752
2016-05-02T13:19:18.547Z,12584
2016-05-02T13:20:18.566Z,12068
2016-05-02T13:21:19.881Z,11856
2016-05-02T13:22:18.415Z,11020
2016-05-02T13:23:18.418Z,9840
2016-05-02T13:24:18.420Z,9068
2016-05-02T13:25:18.563Z,8876
2016-05-02T13:26:20.566Z,8836
2016-05-02T13:27:20.585Z,8784
2016-05-02T13:28:19.447Z,8756
2016-05-02T13:29:18.574Z,8940
2016-05-02T13:30:18.295Z,9628
2016-05-02T13:31:18.596Z,10732
2016-05-02T13:32:18.598Z,11952